Barrackville, WV (26559)

9:42 AM EDT on July 24, 2016 (GMT -0400)
Rivesville | | Change Station
Active Advisory: Heat Advisory

Elev 942 ft 39.53 °N, 80.13 °W | Updated 12 minutes ago

Clear
Clear
81.7 °F
Feels Like 88 °F
N
3.7
Wind Variable Wind from South

Today
High -- | Low -- °F
--% Chance of Precip.
Yesterday
High -- | Low -- °F
Precip. -- in
Pressure 30.00 in
Visibility 8.0 miles
Clouds Clear
Heat Index 88 °F
Dew Point 75 °F
Humidity 80%
Rainfall 0.00 in
Snow Depth Not available.
6:13 AM 8:40 PM
Waning Gibbous, 76% visible
METAR KCKB 241253Z 16005KT 8SM CLR 26/22 A3004 RMK AO2 SLP157 T02560222
Pressure 30.00 in
Visibility 8.0 miles
Clouds Clear
Heat Index 88 °F
Dew Point 75 °F
Humidity 80%
Rainfall 0.00 in
Snow Depth Not available.
6:13 AM 8:40 PM
Waning Gibbous, 76% visible
METAR KCKB 241253Z 16005KT 8SM CLR 26/22 A3004 RMK AO2 SLP157 T02560222

10-Day Weather Forecast

Almanac

Astronomy

Jul. 24, 2016 Rise Set
Actual Time
Civil Twilight
Nautical Twilight
Astronomical Twilight
Moon
Length of Visible Light
Length of Day
Tomorrow will be .
, % of the Moon is Illuminated

Today's Extremes

State Highs State Lows

Community

WunderPhotos

Upload Photos

1,927,057 photos uploaded!

WunderBlog® & News

Nearby

Air Quality

  Air Quality AQ Index Pollutant
Not available.

Snow Depth

Station Depth Elevation

Earthquake Activity

City Distance Mag. Time & Date
Minimum magnitude displayed is 2.5.

Coastal Water Temperatures

Place Temperature

Stations

Nearby Weather Stations

Station Location Temp. Windchill Dew Point Humidity Wind Precip. Elev Updated Type
                   

Watches & Warnings

Heat Advisory
Issued: 6:29 AM EDT Jul. 24, 2016 – National Weather Service

... Heat advisory remains in effect from noon today to 8 PM EDT
this evening...

* heat index values... 100 to 105 during the afternoon and early
evening hours.

* High temperatures... lower to mid 90s.

* Dewpoints... lower 70s.

* Impacts... heat related illnesses will begin to be seen. If you
are susceptible to heat... limit your outdoor activity.

Precautionary/preparedness actions...

A heat advisory means that a period of hot temperatures is
expected. The combination of hot temperatures and high humidity
will combine to create a situation in which heat illnesses are
possible. Drink plenty of fluids... stay in an air-conditioned
room... stay out of the sun... and check up on relatives and
neighbors.